Time;durP1;ratioP1;P1;durP2;ratioP2;P2;SDS_P1;SDS_P2;PMS_P1;PMS_P2;Temp;Humidity;BMP_temperature;BMP_pressure;BME280_temperature;BME280_humidity;BME280_pressure;Samples;Min_cycle;Max_cycle;Signal;HPM_P1;HPM_P2
2022/01/12 00:02:00;;;;;;;32.92;14.48;;;;;;;2.21;nan;103506.81;10401691;28;20045;-84
2022/01/12 00:07:02;;;;;;;29.38;12.70;;;;;;;2.28;nan;103520.16;10378212;28;20037;-84
2022/01/12 00:12:04;;;;;;;29.02;12.70;;;;;;;2.32;nan;103524.81;10410361;28;20049;-84
2022/01/12 00:17:05;;;;;;;29.90;13.23;;;;;;;2.27;nan;103531.97;10402686;28;20067;-84
2022/01/12 00:22:08;;;;;;;25.55;12.82;;;;;;;2.36;nan;103538.00;10394218;28;20068;-84
2022/01/12 00:37:52;;;;;;;32.63;13.55;;;;;;;2.38;nan;103538.16;10410303;28;20071;-82
2022/01/12 00:42:54;;;;;;;27.77;13.00;;;;;;;2.37;nan;103546.53;10392017;28;20049;-82
2022/01/12 00:47:55;;;;;;;31.60;13.65;;;;;;;2.45;nan;103550.75;10411538;28;20508;-83
2022/01/12 00:52:57;;;;;;;29.20;11.85;;;;;;;2.44;nan;103551.50;10417244;28;20060;-83
2022/01/12 00:58:02;;;;;;;28.75;12.85;;;;;;;2.36;nan;103572.72;10416424;28;20136;-83
2022/01/12 01:03:03;;;;;;;33.88;12.55;;;;;;;2.25;nan;103574.16;10425084;28;20043;-83
2022/01/12 01:08:07;;;;;;;24.55;10.90;;;;;;;2.22;nan;103576.41;10413177;28;20038;-86
2022/01/12 01:13:10;;;;;;;28.02;10.82;;;;;;;2.09;nan;103576.78;10400352;28;20046;-86
2022/01/12 01:28:58;;;;;;;27.45;13.02;;;;;;;2.01;nan;103552.19;10395340;28;20164;-86
2022/01/12 01:34:08;;;;;;;29.15;12.23;;;;;;;2.10;nan;103581.13;10410454;28;20034;-85
2022/01/12 01:39:13;;;;;;;29.98;12.93;;;;;;;2.00;nan;103575.81;10394510;28;20136;-85
2022/01/12 01:54:46;;;;;;;;;;;;;;;1.96;nan;103594.94;10410722;28;20512;-86
2022/01/12 01:59:49;;;;;;;30.10;12.90;;;;;;;2.09;nan;103581.88;10393042;28;20376;-85
2022/01/12 02:04:50;;;;;;;26.50;12.90;;;;;;;2.05;nan;103569.56;10409223;28;20037;-87
2022/01/12 02:09:53;;;;;;;34.05;13.48;;;;;;;2.01;nan;103562.38;10391736;28;20037;-86
2022/01/12 02:15:19;;;;;;;27.23;13.13;;;;;;;1.84;nan;103579.31;10400816;28;20065;-85
2022/01/12 02:36:22;;;;;;;37.33;12.98;;;;;;;2.07;nan;103585.88;10402068;28;20152;-86
2022/01/12 02:41:24;;;;;;;27.77;12.30;;;;;;;2.01;nan;103585.25;10397607;28;20041;-85
2022/01/12 02:57:15;;;;;;;28.20;14.15;;;;;;;2.14;nan;103611.22;10379438;28;20439;-85
2022/01/12 03:02:22;;;;;;;31.40;14.23;;;;;;;2.12;nan;103617.81;10427663;28;20037;-85
2022/01/12 03:07:24;;;;;;;32.85;13.57;;;;;;;2.09;nan;103627.66;10397331;28;20129;-86
2022/01/12 03:12:26;;;;;;;33.30;15.75;;;;;;;2.29;nan;103631.34;10401485;28;20045;-86
2022/01/12 03:17:28;;;;;;;34.53;15.30;;;;;;;2.28;nan;103649.88;10414379;28;20045;-86
2022/01/12 03:22:30;;;;;;;34.90;15.70;;;;;;;2.37;nan;103655.94;10393093;28;20029;-86
2022/01/12 03:27:32;;;;;;;37.47;16.15;;;;;;;2.42;nan;103654.75;10380878;28;20042;-86
2022/01/12 03:32:42;;;;;;;33.28;15.80;;;;;;;2.44;nan;103665.13;10396470;28;20045;-86
2022/01/12 03:38:19;;;;;;;27.65;15.88;;;;;;;2.20;nan;103657.63;10400263;28;20135;-86
2022/01/12 03:43:05;;;;;;;32.90;15.55;;;;;;;2.32;nan;103659.66;10393898;28;20044;-86
2022/01/12 03:48:07;;;;;;;38.13;16.83;;;;;;;2.24;nan;103642.69;10395123;28;20049;-85
2022/01/12 03:53:09;;;;;;;32.35;15.98;;;;;;;2.38;nan;103642.47;10378222;28;20057;-84
2022/01/12 03:58:11;;;;;;;37.78;16.27;;;;;;;2.32;nan;103657.13;10379132;28;20057;-85
2022/01/12 04:03:15;;;;;;;34.38;16.83;;;;;;;2.34;nan;103665.81;10378755;28;20088;-85
2022/01/12 04:08:20;;;;;;;38.95;16.67;;;;;;;2.40;nan;103666.44;10394712;28;20099;-84
2022/01/12 04:13:25;;;;;;;33.17;17.00;;;;;;;2.25;nan;103659.75;10394954;28;20432;-84
2022/01/12 04:18:27;;;;;;;41.13;17.80;;;;;;;2.30;nan;103668.78;10378111;28;20081;-84
2022/01/12 04:23:30;;;;;;;32.17;17.52;;;;;;;2.21;nan;103648.38;10410759;28;20095;-84
2022/01/12 04:28:32;;;;;;;34.38;17.23;;;;;;;2.17;nan;103653.88;10394062;28;20045;-84
2022/01/12 04:33:36;;;;;;;38.53;18.95;;;;;;;2.12;nan;103645.78;10403328;28;20131;-84
2022/01/12 04:38:40;;;;;;;43.38;17.92;;;;;;;2.17;nan;103657.31;10391372;28;20041;-85
2022/01/12 04:43:44;;;;;;;43.17;18.98;;;;;;;2.14;nan;103646.81;10388392;28;20088;-85
2022/01/12 04:49:47;;;;;;;40.22;19.85;;;;;;;2.18;nan;103643.88;10407424;28;20046;-85
2022/01/12 04:54:11;;;;;;;35.63;18.20;;;;;;;2.14;nan;103646.81;10402828;28;20045;-85
2022/01/12 04:59:13;;;;;;;34.92;18.48;;;;;;;2.39;nan;103664.66;10402798;28;20051;-85
2022/01/12 05:10:01;;;;;;;40.05;19.35;;;;;;;2.40;nan;103658.81;10397125;28;20041;-85
2022/01/12 05:15:11;;;;;;;45.15;20.45;;;;;;;2.35;nan;103658.34;10397583;28;20128;-85
2022/01/12 05:20:13;;;;;;;42.22;20.02;;;;;;;2.51;nan;103660.81;10413040;28;20392;-85
2022/01/12 05:25:17;;;;;;;38.50;19.58;;;;;;;2.51;nan;103665.03;10397166;28;20396;-86
2022/01/12 05:30:20;;;;;;;44.47;20.88;;;;;;;2.51;nan;103665.03;10413595;28;20054;-85
2022/01/12 05:35:24;;;;;;;45.95;19.95;;;;;;;2.44;nan;103663.47;10413032;28;20042;-85
2022/01/12 05:40:26;;;;;;;42.80;19.85;;;;;;;2.47;nan;103666.34;10396531;28;20041;-85
2022/01/12 05:45:32;;;;;;;41.75;18.83;;;;;;;2.39;nan;103659.56;10396767;28;20383;-85
2022/01/12 05:50:35;;;;;;;46.95;20.08;;;;;;;2.41;nan;103653.00;10412474;28;20045;-85
2022/01/12 05:55:44;;;;;;;40.38;19.05;;;;;;;2.50;nan;103673.38;10396311;28;20133;-85
2022/01/12 06:00:48;;;;;;;47.30;21.60;;;;;;;2.42;nan;103664.94;10396473;28;20049;-85
2022/01/12 06:05:50;;;;;;;46.83;19.00;;;;;;;2.46;nan;103674.72;10396079;28;20088;-85
2022/01/12 06:10:52;;;;;;;44.13;20.27;;;;;;;2.63;nan;103685.75;10402606;28;20080;-85
2022/01/12 06:15:55;;;;;;;40.80;20.15;;;;;;;2.85;nan;103694.84;10387493;28;20045;-86
2022/01/12 06:21:18;;;;;;;49.95;21.13;;;;;;;2.73;nan;103713.94;10419052;28;20045;-85
2022/01/12 06:26:28;;;;;;;49.05;22.00;;;;;;;2.81;nan;103728.34;10403598;28;20054;-85
2022/01/12 06:31:30;;;;;;;60.90;21.48;;;;;;;2.75;nan;103727.72;10402579;28;20045;-85
2022/01/12 06:36:33;;;;;;;71.18;24.50;;;;;;;2.88;nan;103737.53;10384763;28;20393;-86
2022/01/12 06:41:36;;;;;;;57.97;22.63;;;;;;;2.82;nan;103735.25;10429669;28;20045;-87
2022/01/12 06:46:38;;;;;;;61.55;24.05;;;;;;;2.78;nan;103750.97;10411620;28;20103;-86
2022/01/12 06:51:40;;;;;;;72.53;22.55;;;;;;;2.93;nan;103753.31;10418675;28;20053;-86
2022/01/12 06:56:44;;;;;;;80.53;24.77;;;;;;;3.03;nan;103756.03;10401488;28;20046;-86
2022/01/12 07:01:45;;;;;;;73.82;23.17;;;;;;;3.03;nan;103768.75;10377182;28;20038;-86
2022/01/12 07:06:51;;;;;;;71.15;23.02;;;;;;;3.06;nan;103761.44;10430857;28;20049;-85
2022/01/12 07:11:55;;;;;;;62.92;22.75;;;;;;;3.12;nan;103756.97;10401698;28;20052;-86
2022/01/12 07:17:10;;;;;;;54.83;22.40;;;;;;;2.98;nan;103768.28;10388827;28;20382;-86
2022/01/12 07:22:12;;;;;;;93.57;23.38;;;;;;;3.11;nan;103790.84;10431255;28;20042;-86
2022/01/12 07:27:40;;;;;;;86.30;22.10;;;;;;;3.06;nan;103786.94;10399854;28;20064;-86
2022/01/12 07:32:51;;;;;;;97.90;23.98;;;;;;;3.11;nan;103774.66;10399571;28;20041;-85
2022/01/12 07:37:53;;;;;;;90.60;23.60;;;;;;;3.08;nan;103789.63;10414581;28;20065;-86
2022/01/12 07:42:54;;;;;;;69.88;23.88;;;;;;;3.22;nan;103799.59;10417802;28;20045;-85
2022/01/12 07:47:57;;;;;;;89.50;24.05;;;;;;;3.22;nan;103808.88;10394306;28;20433;-86
2022/01/12 07:52:59;;;;;;;112.00;22.38;;;;;;;3.06;nan;103817.50;10399430;28;20052;-86
2022/01/12 07:58:00;;;;;;;69.82;23.88;;;;;;;3.22;nan;103819.09;10405262;28;20415;-85
2022/01/12 08:03:03;;;;;;;85.28;22.40;;;;;;;3.27;nan;103833.19;10420771;28;20484;-85
2022/01/12 08:08:04;;;;;;;59.92;21.55;;;;;;;3.06;nan;103835.31;10432061;28;20492;-81
2022/01/12 08:13:06;;;;;;;62.30;22.23;;;;;;;3.16;nan;103855.91;10444640;28;20045;-81
2022/01/12 08:18:08;;;;;;;61.60;21.10;;;;;;;3.23;nan;103861.66;10420256;28;20337;-82
2022/01/12 08:23:10;;;;;;;45.83;19.17;;;;;;;3.04;nan;103869.91;10418048;28;20064;-82
2022/01/12 08:28:12;;;;;;;55.65;20.45;;;;;;;3.13;nan;103867.41;10409153;28;20037;-81
2022/01/12 08:33:15;;;;;;;54.03;19.42;;;;;;;3.08;nan;103876.22;10390199;28;20103;-81
2022/01/12 08:38:17;;;;;;;50.67;19.90;;;;;;;3.19;nan;103880.81;10424968;28;20056;-82
2022/01/12 08:43:19;;;;;;;47.13;19.55;;;;;;;3.24;nan;103883.84;10407001;28;20508;-82
2022/01/12 08:48:22;;;;;;;49.72;20.42;;;;;;;3.33;nan;103878.06;10422105;28;20481;-81
2022/01/12 08:53:23;;;;;;;58.97;19.80;;;;;;;3.61;nan;103873.22;10410040;28;20045;-82
2022/01/12 08:58:25;;;;;;;47.15;17.52;;;;;;;3.33;nan;103869.47;10434841;28;20045;-82
2022/01/12 09:03:27;;;;;;;63.15;17.92;;;;;;;3.60;nan;103868.00;10424655;28;20043;-82
2022/01/12 09:08:29;;;;;;;44.95;14.85;;;;;;;3.25;nan;103881.44;10437863;28;20488;-83
2022/01/12 09:13:43;;;;;;;58.50;15.65;;;;;;;3.31;nan;103886.28;10430284;28;20053;-82
2022/01/12 09:18:45;;;;;;;57.33;16.27;;;;;;;3.71;nan;103902.22;10431352;28;20413;-82
2022/01/12 09:23:48;;;;;;;56.83;16.35;;;;;;;3.33;nan;103921.38;10441899;28;20409;-83
2022/01/12 09:34:50;;;;;;;58.47;17.25;;;;;;;3.51;nan;103940.97;10407831;28;20408;-82
2022/01/12 09:39:52;;;;;;;60.15;17.10;;;;;;;3.71;nan;103950.69;10412661;28;20053;-83
2022/01/12 09:44:55;;;;;;;56.75;17.35;;;;;;;3.59;nan;103957.97;10442496;28;20576;-83
2022/01/12 09:49:56;;;;;;;64.07;17.63;;;;;;;3.68;nan;103958.00;10419655;28;20059;-84
2022/01/12 09:54:58;;;;;;;60.65;17.50;;;;;;;3.67;nan;103954.56;10378123;28;20042;-84
2022/01/12 10:00:00;;;;;;;60.95;18.10;;;;;;;3.59;nan;103945.22;10387572;28;20568;-84
2022/01/12 10:05:08;;;;;;;60.30;16.38;;;;;;;3.65;nan;103948.38;10419771;28;20049;-86
2022/01/12 10:10:15;;;;;;;53.00;15.32;;;;;;;3.68;nan;103961.47;10433113;28;20045;-85
2022/01/12 10:15:17;;;;;;;53.58;16.92;;;;;;;4.04;nan;103957.41;10376868;28;20099;-87
2022/01/12 10:20:22;;;;;;;58.35;17.77;;;;;;;4.04;nan;103963.44;10411222;28;20156;-85
2022/01/12 10:25:29;;;;;;;54.90;15.73;;;;;;;4.20;nan;103965.00;10391194;28;20234;-85
2022/01/12 10:30:32;;;;;;;62.75;16.33;;;;;;;4.11;nan;103973.53;10399681;28;20041;-85
2022/01/12 10:35:37;;;;;;;62.15;18.33;;;;;;;3.88;nan;103976.25;10415814;28;20041;-86
2022/01/12 10:40:48;;;;;;;45.60;14.88;;;;;;;4.09;nan;103979.22;10399188;28;20115;-87
2022/01/12 10:45:50;;;;;;;55.80;17.10;;;;;;;4.17;nan;103969.78;10425893;28;20165;-86
2022/01/12 10:51:20;;;;;;;55.35;16.35;;;;;;;4.25;nan;103961.25;10416910;28;20033;-85
2022/01/12 10:56:23;;;;;;;66.82;20.50;;;;;;;4.44;nan;103959.78;10398694;28;20046;-86
2022/01/12 11:07:06;;;;;;;53.58;14.80;;;;;;;4.26;nan;103981.81;10414549;28;20099;-86
2022/01/12 11:12:31;;;;;;;49.33;14.50;;;;;;;4.35;nan;103986.03;10400236;28;20053;-86
2022/01/12 11:23:14;;;;;;;;;;;;;;;4.50;nan;103956.06;10415601;28;20041;-86
2022/01/12 11:28:40;;;;;;;45.63;14.32;;;;;;;4.75;nan;103952.63;10397798;28;20292;-86
2022/01/12 12:35:16;;;;;;;38.50;14.15;;;;;;;4.86;nan;103940.03;10406145;28;20064;-85
2022/01/12 12:40:45;;;;;;;40.08;14.32;;;;;;;4.98;nan;103927.56;10388904;28;20045;-85
2022/01/12 12:57:28;;;;;;;36.63;13.82;;;;;;;4.90;nan;103944.66;10410721;28;20049;-85
2022/01/12 13:02:40;;;;;;;46.53;14.05;;;;;;;5.25;nan;103954.84;10405850;28;20041;-85
2022/01/12 13:07:45;;;;;;;38.60;12.60;;;;;;;5.04;nan;103956.25;10419742;28;20782;-85
2022/01/12 13:12:51;;;;;;;32.28;13.13;;;;;;;4.60;nan;103954.59;10407197;28;20269;-85
2022/01/12 13:18:05;;;;;;;31.65;12.77;;;;;;;4.62;nan;103943.63;10408012;28;20052;-85
2022/01/12 13:23:07;;;;;;;41.13;13.55;;;;;;;4.71;nan;103936.84;10399180;28;20038;-85
2022/01/12 13:28:09;;;;;;;33.30;12.90;;;;;;;4.65;nan;103934.63;10406199;28;20119;-85
2022/01/12 13:33:11;;;;;;;35.15;13.68;;;;;;;4.67;nan;103935.63;10388709;28;20049;-86
2022/01/12 13:38:24;;;;;;;35.15;13.13;;;;;;;4.73;nan;103941.34;10409199;28;20124;-85
2022/01/12 13:43:26;;;;;;;35.28;12.90;;;;;;;4.78;nan;103946.03;10390655;28;20081;-85
2022/01/12 13:48:31;;;;;;;39.95;13.73;;;;;;;4.87;nan;103952.06;10420328;28;20115;-85
2022/01/12 13:53:38;;;;;;;40.72;13.57;;;;;;;4.76;nan;103956.09;10406274;28;20046;-86
2022/01/12 13:58:42;;;;;;;33.15;13.43;;;;;;;4.89;nan;103958.19;10406279;28;20059;-85
2022/01/12 14:03:51;;;;;;;40.38;14.60;;;;;;;4.76;nan;103951.88;10392080;28;20041;-85
2022/01/12 14:08:58;;;;;;;38.75;14.05;;;;;;;4.80;nan;103958.19;10395801;28;20046;-85
2022/01/12 14:14:01;;;;;;;35.95;13.55;;;;;;;4.62;nan;103952.16;10403944;28;20448;-85
2022/01/12 14:19:06;;;;;;;37.47;14.63;;;;;;;4.63;nan;103948.88;10407532;28;20050;-84
2022/01/12 14:24:10;;;;;;;39.63;14.80;;;;;;;4.60;nan;103948.56;10404755;28;20045;-86
2022/01/12 14:29:11;;;;;;;36.75;14.45;;;;;;;4.50;nan;103939.06;10423031;28;20080;-85
2022/01/12 14:34:13;;;;;;;43.83;14.77;;;;;;;4.16;nan;103942.44;10409049;28;20133;-86
2022/01/12 14:39:15;;;;;;;44.50;16.17;;;;;;;4.14;nan;103937.19;10412526;28;20071;-85
2022/01/12 14:44:17;;;;;;;43.40;15.95;;;;;;;4.09;nan;103931.63;10412497;28;20064;-86
2022/01/12 14:49:18;;;;;;;36.95;15.02;;;;;;;3.88;nan;103934.53;10409657;28;20049;-86
2022/01/12 14:54:20;;;;;;;48.70;16.17;;;;;;;3.81;nan;103933.00;10431156;28;20559;-86
2022/01/12 14:59:22;;;;;;;44.25;17.20;;;;;;;3.76;nan;103944.41;10397393;28;20045;-86
2022/01/12 15:04:27;;;;;;;42.05;16.20;;;;;;;3.64;nan;103927.09;10396426;28;20096;-86
2022/01/12 15:09:29;;;;;;;45.13;15.43;;;;;;;4.01;nan;103929.94;10411874;28;20489;-85
2022/01/12 15:14:44;;;;;;;39.53;15.63;;;;;;;3.99;nan;103944.19;10406580;28;20041;-86
2022/01/12 15:19:46;;;;;;;38.35;15.70;;;;;;;3.89;nan;103941.47;10412858;28;20041;-86
2022/01/12 15:24:51;;;;;;;37.22;15.40;;;;;;;3.80;nan;103957.63;10378591;28;20042;-86
2022/01/12 15:29:53;;;;;;;38.50;15.40;;;;;;;3.64;nan;103954.22;10416129;28;20038;-86
2022/01/12 15:34:56;;;;;;;38.72;14.13;;;;;;;3.67;nan;103976.59;10413834;28;20116;-86
2022/01/12 15:40:01;;;;;;;36.95;15.75;;;;;;;3.60;nan;103968.31;10399762;28;20108;-87
2022/01/12 15:45:04;;;;;;;37.75;15.80;;;;;;;3.69;nan;103968.34;10410642;28;20125;-85
2022/01/12 15:50:07;;;;;;;42.08;14.85;;;;;;;3.80;nan;103967.81;10396552;28;20045;-85
2022/01/12 15:55:10;;;;;;;36.35;15.10;;;;;;;3.64;nan;103964.44;10429302;28;20064;-86
2022/01/12 16:00:12;;;;;;;34.38;14.77;;;;;;;3.70;nan;103970.16;10391303;28;20055;-85
2022/01/12 16:05:14;;;;;;;40.30;15.52;;;;;;;3.48;nan;103978.13;10393529;28;20042;-84
2022/01/12 16:10:17;;;;;;;46.75;16.10;;;;;;;3.65;nan;103991.75;10394798;28;20049;-86
2022/01/12 16:15:19;;;;;;;43.70;16.83;;;;;;;3.52;nan;103986.09;10393479;28;20049;-86
2022/01/12 16:20:23;;;;;;;45.70;16.73;;;;;;;3.49;nan;103989.25;10424076;28;20037;-86
2022/01/12 16:25:25;;;;;;;66.25;23.95;;;;;;;3.42;nan;103992.78;10410376;28;20048;-86
2022/01/12 16:30:45;;;;;;;64.38;23.77;;;;;;;3.35;nan;104005.63;10414107;28;20041;-86
2022/01/12 16:35:48;;;;;;;65.63;24.15;;;;;;;3.23;nan;104017.09;10392135;28;20122;-84
2022/01/12 16:40:53;;;;;;;66.65;25.05;;;;;;;3.09;nan;104021.59;10408579;28;20050;-85
2022/01/12 16:45:56;;;;;;;63.83;23.73;;;;;;;3.09;nan;104016.50;10432474;28;20381;-86
2022/01/12 16:50:57;;;;;;;53.63;23.27;;;;;;;3.25;nan;104007.94;10395088;28;20048;-86
2022/01/12 16:56:00;;;;;;;63.20;23.50;;;;;;;3.25;nan;104003.75;10427683;28;20398;-85
2022/01/12 17:01:07;;;;;;;65.88;24.38;;;;;;;2.93;nan;104002.88;10414629;28;20077;-86
2022/01/12 17:06:11;;;;;;;54.60;21.55;;;;;;;2.81;nan;104018.63;10391207;28;20045;-87
2022/01/12 17:11:16;;;;;;;54.22;21.70;;;;;;;3.04;nan;104022.75;10402552;28;20148;-85
2022/01/12 17:16:17;;;;;;;60.67;21.05;;;;;;;2.85;nan;104020.78;10391563;28;20064;-85
2022/01/12 17:21:24;;;;;;;63.58;20.90;;;;;;;2.66;nan;104016.97;10388915;28;20045;-86
2022/01/12 17:26:45;;;;;;;54.25;19.67;;;;;;;2.54;nan;104017.47;10410070;28;20040;-86
2022/01/12 17:31:48;;;;;;;58.40;19.30;;;;;;;2.36;nan;104021.47;10390405;28;20049;-87
2022/01/12 17:36:55;;;;;;;52.63;19.23;;;;;;;2.52;nan;104024.03;10388185;28;20046;-84
2022/01/12 17:47:47;;;;;;;49.70;19.17;;;;;;;2.43;nan;104022.13;10412455;28;20047;-82
2022/01/12 17:52:49;;;;;;;51.25;18.58;;;;;;;2.44;nan;104019.75;10397480;28;20377;-82
2022/01/12 18:04:13;;;;;;;51.78;18.38;;;;;;;2.37;nan;104043.63;10358068;28;20093;-81
2022/01/12 18:10:06;;;;;;;55.53;19.15;;;;;;;2.54;nan;104036.91;10403985;28;20435;-82
2022/01/12 18:15:13;;;;;;;50.92;19.77;;;;;;;2.47;nan;104045.53;10413352;28;20053;-84
2022/01/12 18:20:16;;;;;;;52.67;18.95;;;;;;;2.46;nan;104043.72;10422603;28;20083;-82
2022/01/12 18:25:21;;;;;;;60.63;20.63;;;;;;;2.38;nan;104044.53;10422725;28;20029;-82
2022/01/12 18:30:23;;;;;;;57.20;20.65;;;;;;;2.35;nan;104054.34;10421953;28;20093;-83
2022/01/12 18:35:25;;;;;;;58.83;21.08;;;;;;;2.50;nan;104063.66;10403780;28;20049;-83
2022/01/12 18:40:35;;;;;;;64.72;21.25;;;;;;;2.30;nan;104055.50;10436396;28;20404;-82
2022/01/12 18:45:37;;;;;;;64.63;21.13;;;;;;;2.41;nan;104049.97;10421595;28;20046;-82
2022/01/12 18:50:39;;;;;;;61.35;19.58;;;;;;;2.32;nan;104051.47;10420521;28;20145;-82
2022/01/12 18:55:52;;;;;;;61.80;20.55;;;;;;;2.31;nan;104053.09;10448981;28;20049;-84
2022/01/12 19:01:30;;;;;;;60.80;19.02;;;;;;;2.28;nan;104067.13;10420731;28;20132;-83
2022/01/12 19:06:36;;;;;;;80.50;29.88;;;;;;;2.41;nan;104066.84;10403222;28;20049;-81
2022/01/12 19:11:40;;;;;;;65.68;20.17;;;;;;;2.31;nan;104082.75;10403852;28;20120;-82
2022/01/12 19:16:44;;;;;;;74.18;22.50;;;;;;;2.38;nan;104095.41;10386886;28;20088;-84
2022/01/12 19:21:47;;;;;;;60.22;20.15;;;;;;;2.50;nan;104096.75;10401010;28;20140;-82
2022/01/12 19:26:49;;;;;;;60.33;20.60;;;;;;;2.56;nan;104091.44;10435790;28;20451;-82
2022/01/12 19:31:51;;;;;;;68.43;21.45;;;;;;;2.47;nan;104104.06;10435793;28;20119;-82
2022/01/12 19:36:53;;;;;;;69.85;21.27;;;;;;;2.37;nan;104099.63;10419944;28;20048;-83
2022/01/12 19:41:55;;;;;;;77.57;21.05;;;;;;;2.24;nan;104088.78;10419933;28;20053;-82
2022/01/12 19:46:56;;;;;;;67.85;23.00;;;;;;;2.28;nan;104087.47;10401734;28;20455;-82
2022/01/12 19:52:09;;;;;;;69.35;21.88;;;;;;;2.28;nan;104082.41;10434224;28;20045;-82
2022/01/12 19:57:16;;;;;;;63.22;20.27;;;;;;;2.21;nan;104068.09;10400958;28;20177;-84
2022/01/12 20:02:27;;;;;;;78.38;23.50;;;;;;;2.30;nan;104086.03;10417470;28;20535;-82
2022/01/12 20:07:35;;;;;;;66.82;24.35;;;;;;;2.33;nan;104099.09;10416254;28;20132;-83
2022/01/12 20:12:38;;;;;;;80.00;23.60;;;;;;;2.45;nan;104105.53;10439230;28;20485;-84
2022/01/12 20:21:40;;;;;;;74.22;23.38;;;;;;;2.44;nan;104106.25;10448158;28;20107;-83
2022/01/12 20:24:27;;;;;;;79.80;24.98;;;;;;;2.43;nan;104099.38;10403941;28;20132;-82
2022/01/12 20:29:41;;;;;;;85.03;24.38;;;;;;;2.45;nan;104113.16;10432746;28;20055;-83
2022/01/12 20:34:46;;;;;;;88.10;24.67;;;;;;;2.62;nan;104106.50;10399225;28;20053;-83
2022/01/12 20:39:48;;;;;;;72.70;22.35;;;;;;;2.54;nan;104106.56;10399222;28;20041;-84
2022/01/12 20:45:18;;;;;;;84.07;24.10;;;;;;;2.43;nan;104109.53;10433509;28;20042;-82
2022/01/12 20:50:20;;;;;;;83.10;24.17;;;;;;;2.51;nan;104118.03;10414971;28;20100;-82
2022/01/12 20:55:22;;;;;;;81.50;24.65;;;;;;;2.65;nan;104117.00;10431907;28;20038;-83
2022/01/12 21:00:24;;;;;;;85.00;25.40;;;;;;;2.66;nan;104107.00;10401235;28;20176;-84
2022/01/12 21:05:26;;;;;;;83.53;25.95;;;;;;;2.52;nan;104110.56;10415436;28;20046;-83
2022/01/12 21:10:28;;;;;;;77.70;21.90;;;;;;;2.65;nan;104096.63;10383625;28;20057;-83
2022/01/12 21:15:29;;;;;;;85.57;23.80;;;;;;;2.56;nan;104075.28;10400804;28;20112;-83
2022/01/12 21:20:31;;;;;;;86.80;25.48;;;;;;;2.49;nan;104079.72;10399665;28;20037;-84
2022/01/12 21:25:39;;;;;;;86.40;26.15;;;;;;;2.52;nan;104074.94;10401390;28;20100;-84
2022/01/12 21:30:44;;;;;;;89.40;25.13;;;;;;;2.44;nan;104079.94;10417446;28;20191;-82
2022/01/12 21:35:52;;;;;;;85.90;23.70;;;;;;;2.44;nan;104079.94;10430165;28;20067;-83
2022/01/12 21:41:18;;;;;;;77.03;22.55;;;;;;;2.35;nan;104087.44;10454251;28;20072;-83
2022/01/12 21:46:48;;;;;;;90.68;24.58;;;;;;;2.30;nan;104078.38;10424173;28;20045;-82
2022/01/12 21:51:50;;;;;;;74.85;22.48;;;;;;;2.26;nan;104076.25;10414842;28;20451;-83
2022/01/12 21:56:51;;;;;;;82.50;23.55;;;;;;;2.31;nan;104072.56;10431915;28;20042;-81
2022/01/12 22:01:53;;;;;;;82.97;24.38;;;;;;;2.26;nan;104069.50;10417886;28;20124;-83
2022/01/12 22:06:55;;;;;;;94.93;25.23;;;;;;;2.36;nan;104066.34;10407907;28;20061;-83
2022/01/12 22:11:57;;;;;;;89.30;25.15;;;;;;;2.43;nan;104073.91;10399402;28;20061;-83
2022/01/12 22:16:58;;;;;;;96.13;26.85;;;;;;;2.32;nan;104082.91;10395543;28;20128;-82
2022/01/12 22:22:17;;;;;;;87.35;23.90;;;;;;;2.38;nan;104092.88;10423393;28;20077;-83
2022/01/12 22:27:18;;;;;;;88.75;25.90;;;;;;;2.39;nan;104097.22;10407277;28;20045;-83
2022/01/12 22:32:20;;;;;;;102.40;25.85;;;;;;;2.37;nan;104091.97;10406556;28;20103;-84
2022/01/12 22:37:22;;;;;;;91.32;24.20;;;;;;;2.42;nan;104077.19;10390264;28;20069;-83
2022/01/12 22:42:24;;;;;;;104.57;25.58;;;;;;;2.38;nan;104090.31;10368251;28;20053;-82
2022/01/12 22:47:26;;;;;;;85.20;23.90;;;;;;;2.44;nan;104072.28;10380834;28;20460;-83
2022/01/12 22:52:28;;;;;;;83.25;24.73;;;;;;;2.50;nan;104073.84;10416936;28;20139;-83
2022/01/12 22:57:33;;;;;;;87.60;24.40;;;;;;;2.46;nan;104069.19;10407087;28;20128;-83
2022/01/12 23:02:39;;;;;;;96.27;25.67;;;;;;;2.43;nan;104068.81;10405379;28;20052;-83
2022/01/12 23:07:50;;;;;;;111.03;24.67;;;;;;;2.51;nan;104072.22;10402448;28;20479;-83
2022/01/12 23:12:52;;;;;;;112.65;27.42;;;;;;;2.43;nan;104079.00;10438805;28;20121;-84
2022/01/12 23:17:54;;;;;;;101.57;25.13;;;;;;;2.49;nan;104084.81;10421859;28;20136;-83
2022/01/12 23:22:58;;;;;;;107.07;26.35;;;;;;;2.48;nan;104089.69;10404281;28;20144;-83
2022/01/12 23:27:59;;;;;;;88.70;24.70;;;;;;;2.59;nan;104099.44;10435226;28;20050;-82
2022/01/12 23:33:03;;;;;;;95.95;24.83;;;;;;;2.44;nan;104100.28;10419154;28;20046;-84
2022/01/12 23:48:29;;;;;;;96.03;24.95;;;;;;;2.27;nan;104095.88;10372820;28;20164;-83
2022/01/12 23:49:32;;;;;;;97.57;25.35;;;;;;;2.29;nan;104104.56;10434851;28;20033;-84
2022/01/12 23:59:54;;;;;;;130.13;27.55;;;;;;;2.11;nan;104099.25;10401330;28;20064;-83
